sensor_id;sensor_type;location;lat;lon;timestamp;pressure;altitude;pressure_sealevel;temperature;humidity
38253;BME280;24785;52.372;20.672;2023-04-15T00:02:35;99952.13;;;9.52;100.00
38253;BME280;24785;52.372;20.672;2023-04-15T00:12:36;99946.25;;;9.50;100.00
38253;BME280;24785;52.372;20.672;2023-04-15T00:22:37;99943.81;;;9.54;100.00
38253;BME280;24785;52.372;20.672;2023-04-15T00:32:38;99938.97;;;9.56;100.00
38253;BME280;24785;52.372;20.672;2023-04-15T00:42:39;99937.63;;;9.58;100.00
38253;BME280;24785;52.372;20.672;2023-04-15T00:52:40;99929.69;;;9.48;100.00
38253;BME280;24785;52.372;20.672;2023-04-15T01:02:41;99939.59;;;9.42;100.00
38253;BME280;24785;52.372;20.672;2023-04-15T01:12:42;99935.81;;;9.04;100.00
38253;BME280;24785;52.372;20.672;2023-04-15T01:22:44;99930.00;;;8.82;100.00
38253;BME280;24785;52.372;20.672;2023-04-15T01:32:45;99936.38;;;8.91;100.00
38253;BME280;24785;52.372;20.672;2023-04-15T01:42:46;99932.94;;;8.86;100.00
38253;BME280;24785;52.372;20.672;2023-04-15T01:52:47;99934.81;;;8.85;100.00
38253;BME280;24785;52.372;20.672;2023-04-15T02:02:48;99939.13;;;8.71;100.00
38253;BME280;24785;52.372;20.672;2023-04-15T02:12:49;99927.44;;;8.46;100.00
38253;BME280;24785;52.372;20.672;2023-04-15T02:22:49;99909.31;;;8.28;100.00
38253;BME280;24785;52.372;20.672;2023-04-15T02:32:50;99902.66;;;8.15;100.00
38253;BME280;24785;52.372;20.672;2023-04-15T02:42:51;99891.72;;;8.12;100.00
38253;BME280;24785;52.372;20.672;2023-04-15T02:52:52;99869.31;;;8.03;100.00
38253;BME280;24785;52.372;20.672;2023-04-15T03:03:01;99863.19;;;8.02;100.00
38253;BME280;24785;52.372;20.672;2023-04-15T03:13:02;99845.84;;;8.00;100.00
38253;BME280;24785;52.372;20.672;2023-04-15T03:23:03;99842.66;;;7.98;100.00
38253;BME280;24785;52.372;20.672;2023-04-15T03:33:04;99838.66;;;7.95;100.00
38253;BME280;24785;52.372;20.672;2023-04-15T03:43:05;99830.34;;;8.02;100.00
38253;BME280;24785;52.372;20.672;2023-04-15T03:53:05;99829.06;;;8.04;100.00
38253;BME280;24785;52.372;20.672;2023-04-15T04:03:07;99835.16;;;8.10;100.00
38253;BME280;24785;52.372;20.672;2023-04-15T04:13:08;99856.47;;;8.20;100.00
38253;BME280;24785;52.372;20.672;2023-04-15T04:23:10;99862.34;;;8.27;100.00
38253;BME280;24785;52.372;20.672;2023-04-15T04:33:11;99877.03;;;8.35;100.00
38253;BME280;24785;52.372;20.672;2023-04-15T04:43:12;99879.41;;;8.36;100.00
38253;BME280;24785;52.372;20.672;2023-04-15T04:53:13;99888.75;;;8.39;100.00
38253;BME280;24785;52.372;20.672;2023-04-15T05:03:14;99886.34;;;8.37;100.00
38253;BME280;24785;52.372;20.672;2023-04-15T05:13:15;99887.94;;;8.38;100.00
38253;BME280;24785;52.372;20.672;2023-04-15T05:23:16;99891.69;;;8.42;100.00
38253;BME280;24785;52.372;20.672;2023-04-15T05:33:17;99881.81;;;8.38;100.00
38253;BME280;24785;52.372;20.672;2023-04-15T05:43:18;99890.09;;;8.36;100.00
38253;BME280;24785;52.372;20.672;2023-04-15T05:53:19;99885.56;;;8.37;100.00
38253;BME280;24785;52.372;20.672;2023-04-15T06:03:20;99883.16;;;8.35;100.00
38253;BME280;24785;52.372;20.672;2023-04-15T06:13:22;99886.06;;;8.44;100.00
38253;BME280;24785;52.372;20.672;2023-04-15T06:23:23;99884.75;;;8.41;100.00
38253;BME280;24785;52.372;20.672;2023-04-15T06:33:24;99874.06;;;8.41;100.00
38253;BME280;24785;52.372;20.672;2023-04-15T06:43:25;99884.19;;;8.44;100.00
38253;BME280;24785;52.372;20.672;2023-04-15T06:53:26;99887.41;;;8.41;100.00
38253;BME280;24785;52.372;20.672;2023-04-15T07:03:27;99905.56;;;8.44;100.00
38253;BME280;24785;52.372;20.672;2023-04-15T07:13:30;99921.31;;;8.46;100.00
38253;BME280;24785;52.372;20.672;2023-04-15T07:23:31;99910.38;;;8.42;100.00
38253;BME280;24785;52.372;20.672;2023-04-15T07:33:32;99905.81;;;8.43;100.00
38253;BME280;24785;52.372;20.672;2023-04-15T07:43:33;99896.44;;;8.50;100.00
38253;BME280;24785;52.372;20.672;2023-04-15T07:53:33;99898.59;;;8.48;100.00
38253;BME280;24785;52.372;20.672;2023-04-15T08:03:35;99914.34;;;8.60;100.00
38253;BME280;24785;52.372;20.672;2023-04-15T08:13:36;99907.09;;;8.66;100.00
38253;BME280;24785;52.372;20.672;2023-04-15T08:23:37;99912.97;;;8.68;100.00
38253;BME280;24785;52.372;20.672;2023-04-15T08:33:38;99928.97;;;8.73;100.00
38253;BME280;24785;52.372;20.672;2023-04-15T08:43:48;99927.09;;;8.73;100.00
38253;BME280;24785;52.372;20.672;2023-04-15T08:53:49;99926.56;;;8.76;100.00
38253;BME280;24785;52.372;20.672;2023-04-15T09:03:51;99941.19;;;8.89;100.00
38253;BME280;24785;52.372;20.672;2023-04-15T09:13:55;99944.66;;;9.00;100.00
38253;BME280;24785;52.372;20.672;2023-04-15T09:23:57;99950.47;;;9.12;100.00
38253;BME280;24785;52.372;20.672;2023-04-15T09:33:59;99947.47;;;9.19;100.00
38253;BME280;24785;52.372;20.672;2023-04-15T09:44:00;99965.06;;;9.30;100.00
38253;BME280;24785;52.372;20.672;2023-04-15T09:54:01;99972.78;;;9.36;100.00
38253;BME280;24785;52.372;20.672;2023-04-15T10:04:03;99981.53;;;9.52;100.00
38253;BME280;24785;52.372;20.672;2023-04-15T10:14:05;99978.75;;;9.67;100.00
38253;BME280;24785;52.372;20.672;2023-04-15T10:24:08;99987.31;;;9.69;100.00
38253;BME280;24785;52.372;20.672;2023-04-15T10:34:09;99993.75;;;9.63;100.00
38253;BME280;24785;52.372;20.672;2023-04-15T10:44:10;99984.59;;;9.74;100.00
38253;BME280;24785;52.372;20.672;2023-04-15T11:04:49;99997.28;;;9.93;100.00
38253;BME280;24785;52.372;20.672;2023-04-15T11:14:50;100002.56;;;10.08;100.00
38253;BME280;24785;52.372;20.672;2023-04-15T11:24:51;100001.00;;;10.02;100.00
38253;BME280;24785;52.372;20.672;2023-04-15T11:34:52;100001.13;;;9.82;100.00
38253;BME280;24785;52.372;20.672;2023-04-15T11:55:07;99989.81;;;9.90;100.00
38253;BME280;24785;52.372;20.672;2023-04-15T12:05:08;99990.63;;;9.95;100.00
38253;BME280;24785;52.372;20.672;2023-04-15T12:15:09;100001.72;;;10.13;100.00
38253;BME280;24785;52.372;20.672;2023-04-15T12:25:10;100014.47;;;10.26;100.00
38253;BME280;24785;52.372;20.672;2023-04-15T12:35:11;100039.59;;;9.96;100.00
38253;BME280;24785;52.372;20.672;2023-04-15T12:45:11;100044.81;;;10.50;100.00
38253;BME280;24785;52.372;20.672;2023-04-15T12:55:13;100045.56;;;11.09;100.00
38253;BME280;24785;52.372;20.672;2023-04-15T13:05:17;100065.53;;;11.88;100.00
38253;BME280;24785;52.372;20.672;2023-04-15T13:15:18;100094.44;;;11.48;100.00
38253;BME280;24785;52.372;20.672;2023-04-15T13:25:22;100107.00;;;11.29;100.00
38253;BME280;24785;52.372;20.672;2023-04-15T13:35:22;100114.97;;;11.82;100.00
38253;BME280;24785;52.372;20.672;2023-04-15T13:45:24;100123.34;;;11.56;100.00
38253;BME280;24785;52.372;20.672;2023-04-15T13:55:25;100122.69;;;11.17;100.00
38253;BME280;24785;52.372;20.672;2023-04-15T14:05:26;100129.31;;;11.00;100.00
38253;BME280;24785;52.372;20.672;2023-04-15T14:15:27;100145.03;;;10.49;100.00
38253;BME280;24785;52.372;20.672;2023-04-15T14:25:28;100160.16;;;10.20;100.00
38253;BME280;24785;52.372;20.672;2023-04-15T14:35:29;100169.38;;;10.03;100.00
38253;BME280;24785;52.372;20.672;2023-04-15T14:45:30;100166.75;;;9.93;100.00
38253;BME280;24785;52.372;20.672;2023-04-15T14:55:31;100167.84;;;10.36;100.00
38253;BME280;24785;52.372;20.672;2023-04-15T15:05:31;100175.81;;;10.52;100.00
38253;BME280;24785;52.372;20.672;2023-04-15T15:15:34;100190.44;;;10.64;100.00
38253;BME280;24785;52.372;20.672;2023-04-15T15:25:35;100188.00;;;10.68;100.00
38253;BME280;24785;52.372;20.672;2023-04-15T15:35:36;100202.13;;;10.45;100.00
38253;BME280;24785;52.372;20.672;2023-04-15T15:45:37;100207.75;;;10.43;100.00
38253;BME280;24785;52.372;20.672;2023-04-15T15:55:38;100214.53;;;10.25;100.00
38253;BME280;24785;52.372;20.672;2023-04-15T16:05:38;100222.56;;;10.25;100.00
38253;BME280;24785;52.372;20.672;2023-04-15T16:15:40;100211.25;;;11.12;100.00
38253;BME280;24785;52.372;20.672;2023-04-15T16:25:41;100228.09;;;12.18;98.21
38253;BME280;24785;52.372;20.672;2023-04-15T16:35:42;100245.69;;;10.99;100.00
38253;BME280;24785;52.372;20.672;2023-04-15T16:45:43;100254.78;;;9.90;100.00
38253;BME280;24785;52.372;20.672;2023-04-15T16:55:44;100264.28;;;9.46;100.00
38253;BME280;24785;52.372;20.672;2023-04-15T17:05:45;100286.19;;;9.23;100.00
38253;BME280;24785;52.372;20.672;2023-04-15T17:15:46;100310.00;;;9.09;100.00
38253;BME280;24785;52.372;20.672;2023-04-15T17:25:47;100318.50;;;8.96;100.00
38253;BME280;24785;52.372;20.672;2023-04-15T17:35:48;100328.38;;;8.91;100.00
38253;BME280;24785;52.372;20.672;2023-04-15T17:45:49;100328.66;;;8.89;100.00
38253;BME280;24785;52.372;20.672;2023-04-15T17:55:50;100342.00;;;8.89;100.00
38253;BME280;24785;52.372;20.672;2023-04-15T18:05:54;100365.25;;;8.89;100.00
38253;BME280;24785;52.372;20.672;2023-04-15T18:15:55;100381.28;;;8.83;100.00
38253;BME280;24785;52.372;20.672;2023-04-15T18:25:56;100392.75;;;8.74;100.00
38253;BME280;24785;52.372;20.672;2023-04-15T18:35:58;100411.44;;;8.74;100.00
38253;BME280;24785;52.372;20.672;2023-04-15T18:45:59;100407.16;;;8.68;100.00
38253;BME280;24785;52.372;20.672;2023-04-15T18:56:02;100417.78;;;8.58;100.00
38253;BME280;24785;52.372;20.672;2023-04-15T19:06:03;100431.16;;;8.63;100.00
38253;BME280;24785;52.372;20.672;2023-04-15T19:16:04;100426.63;;;8.63;100.00
38253;BME280;24785;52.372;20.672;2023-04-15T19:26:06;100423.66;;;8.55;100.00
38253;BME280;24785;52.372;20.672;2023-04-15T19:36:07;100442.56;;;8.48;100.00
38253;BME280;24785;52.372;20.672;2023-04-15T19:46:09;100455.38;;;8.46;100.00
38253;BME280;24785;52.372;20.672;2023-04-15T19:56:12;100456.94;;;8.42;100.00
38253;BME280;24785;52.372;20.672;2023-04-15T20:06:13;100464.66;;;8.38;100.00
38253;BME280;24785;52.372;20.672;2023-04-15T20:16:14;100465.72;;;8.37;100.00
38253;BME280;24785;52.372;20.672;2023-04-15T20:26:15;100476.94;;;8.34;100.00
38253;BME280;24785;52.372;20.672;2023-04-15T20:36:17;100482.00;;;8.36;100.00
38253;BME280;24785;52.372;20.672;2023-04-15T20:46:19;100488.41;;;8.35;100.00
38253;BME280;24785;52.372;20.672;2023-04-15T20:56:20;100482.22;;;8.29;100.00
38253;BME280;24785;52.372;20.672;2023-04-15T21:06:21;100494.44;;;8.20;100.00
38253;BME280;24785;52.372;20.672;2023-04-15T21:16:21;100486.91;;;8.12;100.00
38253;BME280;24785;52.372;20.672;2023-04-15T21:26:22;100502.38;;;8.10;100.00
38253;BME280;24785;52.372;20.672;2023-04-15T21:36:23;100494.91;;;8.12;100.00
38253;BME280;24785;52.372;20.672;2023-04-15T21:46:25;100509.19;;;8.01;100.00
38253;BME280;24785;52.372;20.672;2023-04-15T21:56:26;100509.66;;;7.93;100.00
38253;BME280;24785;52.372;20.672;2023-04-15T22:06:27;100529.34;;;7.86;100.00
38253;BME280;24785;52.372;20.672;2023-04-15T22:16:28;100544.31;;;7.87;100.00
38253;BME280;24785;52.372;20.672;2023-04-15T22:26:29;100561.38;;;7.86;100.00
38253;BME280;24785;52.372;20.672;2023-04-15T22:36:29;100550.09;;;7.79;100.00
38253;BME280;24785;52.372;20.672;2023-04-15T22:46:31;100557.31;;;7.79;100.00
38253;BME280;24785;52.372;20.672;2023-04-15T22:56:32;100564.69;;;7.72;100.00
38253;BME280;24785;52.372;20.672;2023-04-15T23:06:33;100577.72;;;7.68;100.00
38253;BME280;24785;52.372;20.672;2023-04-15T23:16:33;100578.75;;;7.62;100.00
38253;BME280;24785;52.372;20.672;2023-04-15T23:26:34;100573.91;;;7.59;100.00
38253;BME280;24785;52.372;20.672;2023-04-15T23:36:35;100569.00;;;7.51;100.00
38253;BME280;24785;52.372;20.672;2023-04-15T23:46:36;100570.53;;;7.47;100.00
38253;BME280;24785;52.372;20.672;2023-04-15T23:56:37;100563.84;;;7.44;100.00
